All Spectrum Aviation - Van Nuys Airport - KVNY

HOME

Condor Squadron KVNY Webcam

Visit our Electronics Store

Condor Squadron Webcam - Van Nuys Airport - KVNY
Picture taken: Sat, 28 Nov 2020 21:28:41 -0800
YouTube Channel!    Latest Timelapse Movie    Full Size Image    Regular Size Image    

2020/11/29 04:51 KVNY 290451Z 28003KT 10SM CLR 14/M07 A3011 RMK AO2 SLP194 T01391067

HOME

Condor Squadron KVNY Webcam

Visit our Electronics Store